sensor_id;sensor_type;location;lat;lon;timestamp;temperature;humidity
26954;DHT22;14508;50.924;11.600;2022-10-26T00:00:46;8.30;99.90
26954;DHT22;14508;50.924;11.600;2022-10-26T00:03:13;8.30;99.90
26954;DHT22;14508;50.924;11.600;2022-10-26T00:05:41;8.30;99.90
26954;DHT22;14508;50.924;11.600;2022-10-26T00:08:09;8.30;99.90
26954;DHT22;14508;50.924;11.600;2022-10-26T00:10:37;8.30;99.90
26954;DHT22;14508;50.924;11.600;2022-10-26T00:13:05;8.30;99.90
26954;DHT22;14508;50.924;11.600;2022-10-26T00:15:34;8.30;99.90
26954;DHT22;14508;50.924;11.600;2022-10-26T00:18:00;8.20;99.90
26954;DHT22;14508;50.924;11.600;2022-10-26T00:20:27;8.20;99.90
26954;DHT22;14508;50.924;11.600;2022-10-26T00:22:55;8.20;99.90
26954;DHT22;14508;50.924;11.600;2022-10-26T00:25:22;8.20;99.90
26954;DHT22;14508;50.924;11.600;2022-10-26T00:27:49;8.20;99.90
26954;DHT22;14508;50.924;11.600;2022-10-26T00:30:16;8.20;99.90
26954;DHT22;14508;50.924;11.600;2022-10-26T00:32:42;8.30;99.90
26954;DHT22;14508;50.924;11.600;2022-10-26T00:35:09;8.30;99.90
26954;DHT22;14508;50.924;11.600;2022-10-26T00:37:36;8.30;99.90
26954;DHT22;14508;50.924;11.600;2022-10-26T00:40:05;8.30;99.90
26954;DHT22;14508;50.924;11.600;2022-10-26T00:42:32;8.30;99.90
26954;DHT22;14508;50.924;11.600;2022-10-26T00:45:18;8.40;99.90
26954;DHT22;14508;50.924;11.600;2022-10-26T00:47:47;8.40;99.90
26954;DHT22;14508;50.924;11.600;2022-10-26T00:50:17;8.40;99.90
26954;DHT22;14508;50.924;11.600;2022-10-26T00:52:46;8.40;99.90
26954;DHT22;14508;50.924;11.600;2022-10-26T00:55:14;8.40;99.90
26954;DHT22;14508;50.924;11.600;2022-10-26T00:57:46;8.40;99.90
26954;DHT22;14508;50.924;11.600;2022-10-26T01:00:14;8.40;99.90
26954;DHT22;14508;50.924;11.600;2022-10-26T01:02:42;8.40;99.90
26954;DHT22;14508;50.924;11.600;2022-10-26T01:05:10;8.40;99.90
26954;DHT22;14508;50.924;11.600;2022-10-26T01:07:38;8.50;99.90
26954;DHT22;14508;50.924;11.600;2022-10-26T01:13:05;8.40;99.90
26954;DHT22;14508;50.924;11.600;2022-10-26T01:15:39;8.40;99.90
26954;DHT22;14508;50.924;11.600;2022-10-26T01:18:12;8.40;99.90
26954;DHT22;14508;50.924;11.600;2022-10-26T01:23:58;8.50;99.90
26954;DHT22;14508;50.924;11.600;2022-10-26T01:26:47;8.40;99.90
26954;DHT22;14508;50.924;11.600;2022-10-26T01:29:38;8.50;99.90
26954;DHT22;14508;50.924;11.600;2022-10-26T01:32:14;8.50;99.90
26954;DHT22;14508;50.924;11.600;2022-10-26T01:34:46;8.50;99.90
26954;DHT22;14508;50.924;11.600;2022-10-26T01:37:18;8.50;99.90
26954;DHT22;14508;50.924;11.600;2022-10-26T01:39:51;8.50;99.90
26954;DHT22;14508;50.924;11.600;2022-10-26T01:42:20;8.50;99.90
26954;DHT22;14508;50.924;11.600;2022-10-26T01:44:53;8.50;99.90
26954;DHT22;14508;50.924;11.600;2022-10-26T01:47:23;8.50;99.90
26954;DHT22;14508;50.924;11.600;2022-10-26T01:49:54;8.50;99.90
26954;DHT22;14508;50.924;11.600;2022-10-26T01:52:22;8.50;99.90
26954;DHT22;14508;50.924;11.600;2022-10-26T01:54:49;8.50;99.90
26954;DHT22;14508;50.924;11.600;2022-10-26T01:57:18;8.50;99.90
26954;DHT22;14508;50.924;11.600;2022-10-26T02:00:07;8.50;99.90
26954;DHT22;14508;50.924;11.600;2022-10-26T02:02:47;8.50;99.90
26954;DHT22;14508;50.924;11.600;2022-10-26T02:05:28;8.40;99.90
26954;DHT22;14508;50.924;11.600;2022-10-26T02:08:06;8.40;99.90
26954;DHT22;14508;50.924;11.600;2022-10-26T02:10:47;8.40;99.90
26954;DHT22;14508;50.924;11.600;2022-10-26T02:13:18;8.40;99.90
26954;DHT22;14508;50.924;11.600;2022-10-26T02:15:53;8.40;99.90
26954;DHT22;14508;50.924;11.600;2022-10-26T02:18:29;8.40;99.90
26954;DHT22;14508;50.924;11.600;2022-10-26T02:21:00;8.40;99.90
26954;DHT22;14508;50.924;11.600;2022-10-26T02:23:30;8.40;99.90
26954;DHT22;14508;50.924;11.600;2022-10-26T02:25:59;8.40;99.90
26954;DHT22;14508;50.924;11.600;2022-10-26T02:28:31;8.40;99.90
26954;DHT22;14508;50.924;11.600;2022-10-26T02:31:01;8.40;99.90
26954;DHT22;14508;50.924;11.600;2022-10-26T02:33:35;8.40;99.90
26954;DHT22;14508;50.924;11.600;2022-10-26T02:36:07;8.40;99.90
26954;DHT22;14508;50.924;11.600;2022-10-26T02:38:35;8.40;99.90
26954;DHT22;14508;50.924;11.600;2022-10-26T02:41:04;8.40;99.90
26954;DHT22;14508;50.924;11.600;2022-10-26T02:43:36;8.40;99.90
26954;DHT22;14508;50.924;11.600;2022-10-26T02:46:07;8.40;99.90
26954;DHT22;14508;50.924;11.600;2022-10-26T02:48:36;8.40;99.90
26954;DHT22;14508;50.924;11.600;2022-10-26T02:51:10;8.40;99.90
26954;DHT22;14508;50.924;11.600;2022-10-26T02:53:43;8.40;99.90
26954;DHT22;14508;50.924;11.600;2022-10-26T02:56:16;8.40;99.90
26954;DHT22;14508;50.924;11.600;2022-10-26T02:58:46;8.40;99.90
26954;DHT22;14508;50.924;11.600;2022-10-26T03:01:15;8.40;99.90
26954;DHT22;14508;50.924;11.600;2022-10-26T03:03:44;8.30;99.90
26954;DHT22;14508;50.924;11.600;2022-10-26T03:06:11;8.40;99.90
26954;DHT22;14508;50.924;11.600;2022-10-26T03:08:38;8.30;99.90
26954;DHT22;14508;50.924;11.600;2022-10-26T03:11:05;8.30;99.90
26954;DHT22;14508;50.924;11.600;2022-10-26T03:13:32;8.30;99.90
26954;DHT22;14508;50.924;11.600;2022-10-26T03:15:58;8.30;99.90
26954;DHT22;14508;50.924;11.600;2022-10-26T03:18:25;8.30;99.90
26954;DHT22;14508;50.924;11.600;2022-10-26T03:20:53;8.30;99.90
26954;DHT22;14508;50.924;11.600;2022-10-26T03:23:20;8.30;99.90
26954;DHT22;14508;50.924;11.600;2022-10-26T03:25:47;8.30;99.90
26954;DHT22;14508;50.924;11.600;2022-10-26T03:28:14;8.20;99.90
26954;DHT22;14508;50.924;11.600;2022-10-26T03:30:41;8.20;99.90
26954;DHT22;14508;50.924;11.600;2022-10-26T03:33:08;8.20;99.90
26954;DHT22;14508;50.924;11.600;2022-10-26T03:35:36;8.20;99.90
26954;DHT22;14508;50.924;11.600;2022-10-26T03:38:04;8.20;99.90
26954;DHT22;14508;50.924;11.600;2022-10-26T03:40:31;8.10;99.90
26954;DHT22;14508;50.924;11.600;2022-10-26T03:42:57;8.10;99.90
26954;DHT22;14508;50.924;11.600;2022-10-26T03:45:24;8.10;99.90
26954;DHT22;14508;50.924;11.600;2022-10-26T03:47:51;8.10;99.90
26954;DHT22;14508;50.924;11.600;2022-10-26T03:50:20;8.10;99.90
26954;DHT22;14508;50.924;11.600;2022-10-26T03:52:48;8.10;99.90
26954;DHT22;14508;50.924;11.600;2022-10-26T03:55:16;8.10;99.90
26954;DHT22;14508;50.924;11.600;2022-10-26T03:57:44;8.10;99.90
26954;DHT22;14508;50.924;11.600;2022-10-26T04:00:13;8.10;99.90
26954;DHT22;14508;50.924;11.600;2022-10-26T04:02:42;8.10;99.90
26954;DHT22;14508;50.924;11.600;2022-10-26T04:05:11;8.10;99.90
26954;DHT22;14508;50.924;11.600;2022-10-26T04:07:38;8.10;99.90
26954;DHT22;14508;50.924;11.600;2022-10-26T04:10:05;8.10;99.90
26954;DHT22;14508;50.924;11.600;2022-10-26T04:12:35;8.10;99.90
26954;DHT22;14508;50.924;11.600;2022-10-26T04:15:02;8.10;99.90
26954;DHT22;14508;50.924;11.600;2022-10-26T04:17:31;8.10;99.90
26954;DHT22;14508;50.924;11.600;2022-10-26T04:19:58;8.10;99.90
26954;DHT22;14508;50.924;11.600;2022-10-26T04:22:24;8.10;99.90
26954;DHT22;14508;50.924;11.600;2022-10-26T04:24:51;8.10;99.90
26954;DHT22;14508;50.924;11.600;2022-10-26T04:27:18;8.10;99.90
26954;DHT22;14508;50.924;11.600;2022-10-26T04:29:46;8.10;99.90
26954;DHT22;14508;50.924;11.600;2022-10-26T04:32:13;8.10;99.90
26954;DHT22;14508;50.924;11.600;2022-10-26T04:34:40;8.20;99.90
26954;DHT22;14508;50.924;11.600;2022-10-26T04:37:09;8.10;99.90
26954;DHT22;14508;50.924;11.600;2022-10-26T04:39:36;8.10;99.90
26954;DHT22;14508;50.924;11.600;2022-10-26T04:42:03;8.10;99.90
26954;DHT22;14508;50.924;11.600;2022-10-26T04:44:30;8.10;99.90
26954;DHT22;14508;50.924;11.600;2022-10-26T04:46:58;8.10;99.90
26954;DHT22;14508;50.924;11.600;2022-10-26T04:49:25;8.10;99.90
26954;DHT22;14508;50.924;11.600;2022-10-26T04:51:52;8.10;99.90
26954;DHT22;14508;50.924;11.600;2022-10-26T04:54:19;8.00;99.90
26954;DHT22;14508;50.924;11.600;2022-10-26T04:56:46;8.00;99.90
26954;DHT22;14508;50.924;11.600;2022-10-26T04:59:13;8.00;99.90
26954;DHT22;14508;50.924;11.600;2022-10-26T05:01:40;8.10;99.90
26954;DHT22;14508;50.924;11.600;2022-10-26T05:04:08;8.10;99.90
26954;DHT22;14508;50.924;11.600;2022-10-26T05:06:35;8.10;99.90
26954;DHT22;14508;50.924;11.600;2022-10-26T05:09:02;8.10;99.90
26954;DHT22;14508;50.924;11.600;2022-10-26T05:11:28;8.10;99.90
26954;DHT22;14508;50.924;11.600;2022-10-26T05:13:55;8.10;99.90
26954;DHT22;14508;50.924;11.600;2022-10-26T05:16:22;8.20;99.90
26954;DHT22;14508;50.924;11.600;2022-10-26T05:18:49;8.20;99.90
26954;DHT22;14508;50.924;11.600;2022-10-26T05:21:17;8.20;99.90
26954;DHT22;14508;50.924;11.600;2022-10-26T05:23:48;8.20;99.90
26954;DHT22;14508;50.924;11.600;2022-10-26T05:26:15;8.20;99.90
26954;DHT22;14508;50.924;11.600;2022-10-26T05:28:42;8.20;99.90
26954;DHT22;14508;50.924;11.600;2022-10-26T05:31:09;8.20;99.90
26954;DHT22;14508;50.924;11.600;2022-10-26T05:33:36;8.20;99.90
26954;DHT22;14508;50.924;11.600;2022-10-26T05:36:03;8.20;99.90
26954;DHT22;14508;50.924;11.600;2022-10-26T05:38:31;8.20;99.90
26954;DHT22;14508;50.924;11.600;2022-10-26T05:40:58;8.20;99.90
26954;DHT22;14508;50.924;11.600;2022-10-26T05:43:26;8.20;99.90
26954;DHT22;14508;50.924;11.600;2022-10-26T05:45:53;8.30;99.90
26954;DHT22;14508;50.924;11.600;2022-10-26T05:48:20;8.30;99.90
26954;DHT22;14508;50.924;11.600;2022-10-26T05:50:47;8.30;99.90
26954;DHT22;14508;50.924;11.600;2022-10-26T05:53:14;8.30;99.90
26954;DHT22;14508;50.924;11.600;2022-10-26T05:55:43;8.30;99.90
26954;DHT22;14508;50.924;11.600;2022-10-26T05:58:10;8.30;99.90
26954;DHT22;14508;50.924;11.600;2022-10-26T06:00:45;8.30;99.90
26954;DHT22;14508;50.924;11.600;2022-10-26T06:03:26;8.30;99.90
26954;DHT22;14508;50.924;11.600;2022-10-26T06:05:57;8.30;99.90
26954;DHT22;14508;50.924;11.600;2022-10-26T06:08:26;8.30;99.90
26954;DHT22;14508;50.924;11.600;2022-10-26T06:10:56;8.30;99.90
26954;DHT22;14508;50.924;11.600;2022-10-26T06:13:24;8.30;99.90
26954;DHT22;14508;50.924;11.600;2022-10-26T06:16:01;8.40;99.90
26954;DHT22;14508;50.924;11.600;2022-10-26T06:18:38;8.30;99.90
26954;DHT22;14508;50.924;11.600;2022-10-26T06:21:21;8.40;99.90
26954;DHT22;14508;50.924;11.600;2022-10-26T06:23:54;8.40;99.90
26954;DHT22;14508;50.924;11.600;2022-10-26T06:26:31;8.40;99.90
26954;DHT22;14508;50.924;11.600;2022-10-26T06:29:09;8.40;99.90
26954;DHT22;14508;50.924;11.600;2022-10-26T06:31:38;8.40;99.90
26954;DHT22;14508;50.924;11.600;2022-10-26T06:34:05;8.40;99.90
26954;DHT22;14508;50.924;11.600;2022-10-26T06:36:32;8.40;99.90
26954;DHT22;14508;50.924;11.600;2022-10-26T06:39:02;8.40;99.90
26954;DHT22;14508;50.924;11.600;2022-10-26T06:41:32;8.40;99.90
26954;DHT22;14508;50.924;11.600;2022-10-26T06:44:00;8.50;99.90
26954;DHT22;14508;50.924;11.600;2022-10-26T06:46:35;8.60;99.90
26954;DHT22;14508;50.924;11.600;2022-10-26T06:49:11;8.60;99.90
26954;DHT22;14508;50.924;11.600;2022-10-26T06:51:45;8.70;99.90
26954;DHT22;14508;50.924;11.600;2022-10-26T06:54:17;8.80;99.90
26954;DHT22;14508;50.924;11.600;2022-10-26T06:56:48;8.80;99.90
26954;DHT22;14508;50.924;11.600;2022-10-26T06:59:27;8.90;99.90
26954;DHT22;14508;50.924;11.600;2022-10-26T07:01:56;8.90;99.90
26954;DHT22;14508;50.924;11.600;2022-10-26T07:04:24;9.00;99.90
26954;DHT22;14508;50.924;11.600;2022-10-26T07:06:50;9.10;99.90
26954;DHT22;14508;50.924;11.600;2022-10-26T07:09:17;9.20;99.90
26954;DHT22;14508;50.924;11.600;2022-10-26T07:11:44;9.20;99.90
26954;DHT22;14508;50.924;11.600;2022-10-26T07:14:12;9.30;99.90
26954;DHT22;14508;50.924;11.600;2022-10-26T07:16:39;9.30;99.90
26954;DHT22;14508;50.924;11.600;2022-10-26T07:19:06;9.40;99.90
26954;DHT22;14508;50.924;11.600;2022-10-26T07:21:33;9.40;99.90
26954;DHT22;14508;50.924;11.600;2022-10-26T07:24:00;9.60;99.90
26954;DHT22;14508;50.924;11.600;2022-10-26T07:26:27;9.60;99.90
26954;DHT22;14508;50.924;11.600;2022-10-26T07:28:54;9.60;99.90
26954;DHT22;14508;50.924;11.600;2022-10-26T07:31:22;9.60;99.90
26954;DHT22;14508;50.924;11.600;2022-10-26T07:33:52;9.70;99.90
26954;DHT22;14508;50.924;11.600;2022-10-26T07:36:19;9.70;99.90
26954;DHT22;14508;50.924;11.600;2022-10-26T07:38:46;9.80;99.90
26954;DHT22;14508;50.924;11.600;2022-10-26T07:41:12;9.80;99.90
26954;DHT22;14508;50.924;11.600;2022-10-26T07:43:39;9.80;99.90
26954;DHT22;14508;50.924;11.600;2022-10-26T07:46:06;9.80;99.90
26954;DHT22;14508;50.924;11.600;2022-10-26T07:48:34;9.90;99.90
26954;DHT22;14508;50.924;11.600;2022-10-26T07:51:01;10.00;99.90
26954;DHT22;14508;50.924;11.600;2022-10-26T07:53:28;10.00;99.90
26954;DHT22;14508;50.924;11.600;2022-10-26T07:55:56;10.10;99.90
26954;DHT22;14508;50.924;11.600;2022-10-26T07:58:23;10.20;99.90
26954;DHT22;14508;50.924;11.600;2022-10-26T08:00:52;10.30;99.90
26954;DHT22;14508;50.924;11.600;2022-10-26T08:03:19;10.40;99.90
26954;DHT22;14508;50.924;11.600;2022-10-26T08:05:48;10.50;99.90
26954;DHT22;14508;50.924;11.600;2022-10-26T08:08:18;10.50;99.90
26954;DHT22;14508;50.924;11.600;2022-10-26T08:10:46;10.60;99.90
26954;DHT22;14508;50.924;11.600;2022-10-26T08:13:13;10.60;99.90
26954;DHT22;14508;50.924;11.600;2022-10-26T08:15:40;10.70;99.90
26954;DHT22;14508;50.924;11.600;2022-10-26T08:18:07;10.80;99.90
26954;DHT22;14508;50.924;11.600;2022-10-26T08:20:34;10.90;99.90
26954;DHT22;14508;50.924;11.600;2022-10-26T08:23:02;10.90;99.90
26954;DHT22;14508;50.924;11.600;2022-10-26T08:25:31;11.00;99.90
26954;DHT22;14508;50.924;11.600;2022-10-26T08:28:00;11.20;99.90
26954;DHT22;14508;50.924;11.600;2022-10-26T08:30:26;11.30;99.90
26954;DHT22;14508;50.924;11.600;2022-10-26T08:32:57;11.40;99.90
26954;DHT22;14508;50.924;11.600;2022-10-26T08:35:24;11.50;99.90
26954;DHT22;14508;50.924;11.600;2022-10-26T08:37:51;11.60;99.90
26954;DHT22;14508;50.924;11.600;2022-10-26T08:40:21;11.80;99.90
26954;DHT22;14508;50.924;11.600;2022-10-26T08:42:54;11.90;99.90
26954;DHT22;14508;50.924;11.600;2022-10-26T08:45:26;12.00;99.90
26954;DHT22;14508;50.924;11.600;2022-10-26T08:47:56;12.10;99.90
26954;DHT22;14508;50.924;11.600;2022-10-26T08:50:26;12.20;99.90
26954;DHT22;14508;50.924;11.600;2022-10-26T08:52:59;12.30;99.90
26954;DHT22;14508;50.924;11.600;2022-10-26T08:55:37;12.50;99.90
26954;DHT22;14508;50.924;11.600;2022-10-26T08:58:10;12.60;99.90
26954;DHT22;14508;50.924;11.600;2022-10-26T09:00:39;12.70;99.90
26954;DHT22;14508;50.924;11.600;2022-10-26T09:03:12;12.80;99.90
26954;DHT22;14508;50.924;11.600;2022-10-26T09:05:48;12.90;99.90
26954;DHT22;14508;50.924;11.600;2022-10-26T09:08:22;13.00;99.90
26954;DHT22;14508;50.924;11.600;2022-10-26T09:10:59;13.00;99.90
26954;DHT22;14508;50.924;11.600;2022-10-26T09:13:34;13.10;99.90
26954;DHT22;14508;50.924;11.600;2022-10-26T09:16:06;13.20;99.90
26954;DHT22;14508;50.924;11.600;2022-10-26T09:18:44;13.20;99.90
26954;DHT22;14508;50.924;11.600;2022-10-26T09:21:24;13.30;99.90
26954;DHT22;14508;50.924;11.600;2022-10-26T09:23:59;13.30;99.90
26954;DHT22;14508;50.924;11.600;2022-10-26T09:26:36;13.40;99.90
26954;DHT22;14508;50.924;11.600;2022-10-26T09:29:06;13.40;99.90
26954;DHT22;14508;50.924;11.600;2022-10-26T09:31:39;13.40;99.90
26954;DHT22;14508;50.924;11.600;2022-10-26T09:34:07;13.40;99.90
26954;DHT22;14508;50.924;11.600;2022-10-26T09:36:38;13.30;99.90
26954;DHT22;14508;50.924;11.600;2022-10-26T09:39:12;13.30;99.90
26954;DHT22;14508;50.924;11.600;2022-10-26T09:41:46;13.20;99.90
26954;DHT22;14508;50.924;11.600;2022-10-26T09:44:20;13.20;99.90
26954;DHT22;14508;50.924;11.600;2022-10-26T09:46:55;13.20;99.90
26954;DHT22;14508;50.924;11.600;2022-10-26T09:49:27;13.30;99.90
26954;DHT22;14508;50.924;11.600;2022-10-26T09:51:59;13.30;99.90
26954;DHT22;14508;50.924;11.600;2022-10-26T09:54:25;13.30;99.90
26954;DHT22;14508;50.924;11.600;2022-10-26T09:56:58;13.30;99.90
26954;DHT22;14508;50.924;11.600;2022-10-26T09:59:28;13.20;99.90
26954;DHT22;14508;50.924;11.600;2022-10-26T10:01:58;13.30;99.90
26954;DHT22;14508;50.924;11.600;2022-10-26T10:04:25;13.20;99.90
26954;DHT22;14508;50.924;11.600;2022-10-26T10:07:12;13.30;99.90
26954;DHT22;14508;50.924;11.600;2022-10-26T10:09:39;13.30;99.90
26954;DHT22;14508;50.924;11.600;2022-10-26T10:12:18;13.20;99.90
26954;DHT22;14508;50.924;11.600;2022-10-26T10:14:55;13.20;99.90
26954;DHT22;14508;50.924;11.600;2022-10-26T10:17:22;13.30;99.90
26954;DHT22;14508;50.924;11.600;2022-10-26T10:19:50;13.30;99.90
26954;DHT22;14508;50.924;11.600;2022-10-26T10:22:19;13.30;99.90
26954;DHT22;14508;50.924;11.600;2022-10-26T10:24:53;13.40;99.90
26954;DHT22;14508;50.924;11.600;2022-10-26T10:27:22;13.30;99.90
26954;DHT22;14508;50.924;11.600;2022-10-26T10:29:51;13.20;99.90
26954;DHT22;14508;50.924;11.600;2022-10-26T10:32:21;13.20;99.90
26954;DHT22;14508;50.924;11.600;2022-10-26T10:34:49;13.20;99.90
26954;DHT22;14508;50.924;11.600;2022-10-26T10:37:23;13.30;99.90
26954;DHT22;14508;50.924;11.600;2022-10-26T10:39:56;13.30;99.90
26954;DHT22;14508;50.924;11.600;2022-10-26T10:42:26;13.40;99.90
26954;DHT22;14508;50.924;11.600;2022-10-26T10:44:56;13.50;99.90
26954;DHT22;14508;50.924;11.600;2022-10-26T10:47:25;13.50;99.90
26954;DHT22;14508;50.924;11.600;2022-10-26T10:49:55;13.50;99.90
26954;DHT22;14508;50.924;11.600;2022-10-26T10:52:28;13.60;99.90
26954;DHT22;14508;50.924;11.600;2022-10-26T10:55:08;13.60;99.90
26954;DHT22;14508;50.924;11.600;2022-10-26T10:57:49;13.70;99.90
26954;DHT22;14508;50.924;11.600;2022-10-26T11:00:18;13.70;99.90
26954;DHT22;14508;50.924;11.600;2022-10-26T11:03:12;13.80;99.90
26954;DHT22;14508;50.924;11.600;2022-10-26T11:05:56;13.80;99.90
26954;DHT22;14508;50.924;11.600;2022-10-26T11:08:27;13.80;99.90
26954;DHT22;14508;50.924;11.600;2022-10-26T11:10:59;13.80;99.90
26954;DHT22;14508;50.924;11.600;2022-10-26T11:13:32;13.80;99.90
26954;DHT22;14508;50.924;11.600;2022-10-26T11:16:04;13.90;99.90
26954;DHT22;14508;50.924;11.600;2022-10-26T11:18:36;13.80;99.90
26954;DHT22;14508;50.924;11.600;2022-10-26T11:21:14;13.80;99.90
26954;DHT22;14508;50.924;11.600;2022-10-26T11:23:47;13.90;99.90
26954;DHT22;14508;50.924;11.600;2022-10-26T11:26:21;13.90;99.90
26954;DHT22;14508;50.924;11.600;2022-10-26T11:28:55;13.90;99.90
26954;DHT22;14508;50.924;11.600;2022-10-26T11:31:27;14.00;99.90
26954;DHT22;14508;50.924;11.600;2022-10-26T11:34:08;14.00;99.90
26954;DHT22;14508;50.924;11.600;2022-10-26T11:36:39;14.00;99.90
26954;DHT22;14508;50.924;11.600;2022-10-26T11:39:13;14.10;99.90
26954;DHT22;14508;50.924;11.600;2022-10-26T11:41:46;14.20;99.90
26954;DHT22;14508;50.924;11.600;2022-10-26T11:44:21;14.20;99.90
26954;DHT22;14508;50.924;11.600;2022-10-26T11:46:51;14.30;99.90
26954;DHT22;14508;50.924;11.600;2022-10-26T11:49:22;14.30;99.90
26954;DHT22;14508;50.924;11.600;2022-10-26T11:51:55;14.40;99.90
26954;DHT22;14508;50.924;11.600;2022-10-26T11:54:28;14.50;99.90
26954;DHT22;14508;50.924;11.600;2022-10-26T11:56:57;14.60;99.90
26954;DHT22;14508;50.924;11.600;2022-10-26T11:59:27;14.60;99.90
26954;DHT22;14508;50.924;11.600;2022-10-26T12:01:59;14.70;99.90
26954;DHT22;14508;50.924;11.600;2022-10-26T12:04:30;14.80;99.90
26954;DHT22;14508;50.924;11.600;2022-10-26T12:07:00;14.90;99.90
26954;DHT22;14508;50.924;11.600;2022-10-26T12:09:31;15.00;99.90
26954;DHT22;14508;50.924;11.600;2022-10-26T12:12:04;15.00;99.90
26954;DHT22;14508;50.924;11.600;2022-10-26T12:14:40;15.10;99.90
26954;DHT22;14508;50.924;11.600;2022-10-26T12:17:12;15.10;99.90
26954;DHT22;14508;50.924;11.600;2022-10-26T12:19:47;15.10;99.90
26954;DHT22;14508;50.924;11.600;2022-10-26T12:22:18;15.10;99.90
26954;DHT22;14508;50.924;11.600;2022-10-26T12:25:04;15.20;99.90
26954;DHT22;14508;50.924;11.600;2022-10-26T12:27:32;15.20;99.90
26954;DHT22;14508;50.924;11.600;2022-10-26T12:30:26;15.30;99.90
26954;DHT22;14508;50.924;11.600;2022-10-26T12:32:55;15.30;99.90
26954;DHT22;14508;50.924;11.600;2022-10-26T12:35:42;15.40;99.90
26954;DHT22;14508;50.924;11.600;2022-10-26T12:41:23;15.50;99.90
26954;DHT22;14508;50.924;11.600;2022-10-26T12:43:55;15.50;99.90
26954;DHT22;14508;50.924;11.600;2022-10-26T12:46:42;15.60;99.90
26954;DHT22;14508;50.924;11.600;2022-10-26T12:55:51;15.70;99.90
26954;DHT22;14508;50.924;11.600;2022-10-26T13:01:20;15.80;99.90
26954;DHT22;14508;50.924;11.600;2022-10-26T13:03:59;15.80;99.90
26954;DHT22;14508;50.924;11.600;2022-10-26T13:06:39;15.70;99.90
26954;DHT22;14508;50.924;11.600;2022-10-26T13:09:15;15.70;99.90
26954;DHT22;14508;50.924;11.600;2022-10-26T13:11:45;15.60;99.90
26954;DHT22;14508;50.924;11.600;2022-10-26T13:14:19;15.60;99.90
26954;DHT22;14508;50.924;11.600;2022-10-26T13:16:47;15.50;99.90
26954;DHT22;14508;50.924;11.600;2022-10-26T13:19:24;15.40;99.90
26954;DHT22;14508;50.924;11.600;2022-10-26T13:21:52;15.30;99.90
26954;DHT22;14508;50.924;11.600;2022-10-26T13:24:21;15.30;99.90
26954;DHT22;14508;50.924;11.600;2022-10-26T13:30:20;15.40;99.90
26954;DHT22;14508;50.924;11.600;2022-10-26T13:32:50;15.40;99.90
26954;DHT22;14508;50.924;11.600;2022-10-26T13:35:20;15.60;99.90
26954;DHT22;14508;50.924;11.600;2022-10-26T13:37:50;15.70;99.90
26954;DHT22;14508;50.924;11.600;2022-10-26T13:40:20;15.80;99.90
26954;DHT22;14508;50.924;11.600;2022-10-26T13:42:50;15.90;99.90
26954;DHT22;14508;50.924;11.600;2022-10-26T13:45:21;16.10;99.90
26954;DHT22;14508;50.924;11.600;2022-10-26T13:47:54;16.20;99.90
26954;DHT22;14508;50.924;11.600;2022-10-26T13:50:25;16.40;99.90
26954;DHT22;14508;50.924;11.600;2022-10-26T13:52:55;16.40;99.90
26954;DHT22;14508;50.924;11.600;2022-10-26T13:55:28;16.50;99.90
26954;DHT22;14508;50.924;11.600;2022-10-26T13:58:08;16.60;99.90
26954;DHT22;14508;50.924;11.600;2022-10-26T14:00:38;16.60;99.90
26954;DHT22;14508;50.924;11.600;2022-10-26T14:03:12;16.70;99.90
26954;DHT22;14508;50.924;11.600;2022-10-26T14:05:42;16.60;99.90
26954;DHT22;14508;50.924;11.600;2022-10-26T14:08:15;16.70;99.90
26954;DHT22;14508;50.924;11.600;2022-10-26T14:10:45;16.70;99.90
26954;DHT22;14508;50.924;11.600;2022-10-26T14:13:14;16.70;99.90
26954;DHT22;14508;50.924;11.600;2022-10-26T14:15:43;16.80;99.90
26954;DHT22;14508;50.924;11.600;2022-10-26T14:18:13;16.90;99.90
26954;DHT22;14508;50.924;11.600;2022-10-26T14:20:47;17.10;99.90
26954;DHT22;14508;50.924;11.600;2022-10-26T14:23:31;17.20;99.90
26954;DHT22;14508;50.924;11.600;2022-10-26T14:25:59;17.40;99.90
26954;DHT22;14508;50.924;11.600;2022-10-26T14:28:29;17.50;99.90
26954;DHT22;14508;50.924;11.600;2022-10-26T14:31:10;17.50;99.90
26954;DHT22;14508;50.924;11.600;2022-10-26T14:33:38;17.50;99.90
26954;DHT22;14508;50.924;11.600;2022-10-26T14:36:06;17.50;99.90
26954;DHT22;14508;50.924;11.600;2022-10-26T14:38:40;17.50;99.90
26954;DHT22;14508;50.924;11.600;2022-10-26T14:41:08;17.40;99.90
26954;DHT22;14508;50.924;11.600;2022-10-26T14:43:35;17.40;99.90
26954;DHT22;14508;50.924;11.600;2022-10-26T14:46:02;17.30;99.90
26954;DHT22;14508;50.924;11.600;2022-10-26T14:48:31;17.20;99.90
26954;DHT22;14508;50.924;11.600;2022-10-26T14:51:00;17.20;99.90
26954;DHT22;14508;50.924;11.600;2022-10-26T14:53:33;17.10;99.90
26954;DHT22;14508;50.924;11.600;2022-10-26T14:56:03;17.10;99.90
26954;DHT22;14508;50.924;11.600;2022-10-26T14:58:31;17.00;99.90
26954;DHT22;14508;50.924;11.600;2022-10-26T15:01:30;17.00;99.90
26954;DHT22;14508;50.924;11.600;2022-10-26T15:03:59;16.90;99.90
26954;DHT22;14508;50.924;11.600;2022-10-26T15:06:31;16.80;99.90
26954;DHT22;14508;50.924;11.600;2022-10-26T15:09:01;16.80;99.90
26954;DHT22;14508;50.924;11.600;2022-10-26T15:11:32;16.70;99.90
26954;DHT22;14508;50.924;11.600;2022-10-26T15:14:00;16.60;99.90
26954;DHT22;14508;50.924;11.600;2022-10-26T15:16:29;16.60;99.90
26954;DHT22;14508;50.924;11.600;2022-10-26T15:18:58;16.50;99.90
26954;DHT22;14508;50.924;11.600;2022-10-26T15:21:34;16.50;99.90
26954;DHT22;14508;50.924;11.600;2022-10-26T15:24:09;16.40;99.90
26954;DHT22;14508;50.924;11.600;2022-10-26T15:26:41;16.40;99.90
26954;DHT22;14508;50.924;11.600;2022-10-26T15:29:33;16.30;99.90
26954;DHT22;14508;50.924;11.600;2022-10-26T15:32:00;16.20;99.90
26954;DHT22;14508;50.924;11.600;2022-10-26T15:34:27;16.10;99.90
26954;DHT22;14508;50.924;11.600;2022-10-26T15:36:55;16.00;99.90
26954;DHT22;14508;50.924;11.600;2022-10-26T15:39:24;15.80;99.90
26954;DHT22;14508;50.924;11.600;2022-10-26T15:41:51;15.70;99.90
26954;DHT22;14508;50.924;11.600;2022-10-26T15:44:20;15.60;99.90
26954;DHT22;14508;50.924;11.600;2022-10-26T15:46:48;15.50;99.90
26954;DHT22;14508;50.924;11.600;2022-10-26T15:49:17;15.40;99.90
26954;DHT22;14508;50.924;11.600;2022-10-26T15:51:46;15.30;99.90
26954;DHT22;14508;50.924;11.600;2022-10-26T15:54:13;15.20;99.90
26954;DHT22;14508;50.924;11.600;2022-10-26T15:56:42;15.10;99.90
26954;DHT22;14508;50.924;11.600;2022-10-26T15:59:15;15.00;99.90
26954;DHT22;14508;50.924;11.600;2022-10-26T16:01:42;14.90;99.90
26954;DHT22;14508;50.924;11.600;2022-10-26T16:04:17;14.80;99.90
26954;DHT22;14508;50.924;11.600;2022-10-26T16:06:47;14.70;99.90